ΕΜΥ, Εθνική Μετεωρολογική Υπηρεσία - Δελτία Καιρού, Προγνώσεις

ΑΕΡΟΝΑΥΤΙΛΙΑ

GREEK AIRPORTS CODES

TAF LGKC 131100Z 1312/1321 27015KT 9999 FEW010 BKN025 PROB40 TEMPO 1312/1321 5000 RA FEW008 SCT015 BKN020 PROB30 TEMPO 1312/1321 4000 TSRA SCT008 FEW016CB BKN020 TEMPO 1312/1321 27015G25KT=

EUROPEAN AIRPORTS CODES

LFPO 131300Z 28018KT 9999 SCT040 SCT052 09/02 Q0988 TEMPO20020G37KT 4000 SHRA SCT030TCU=